Decoded Metar for KAIA (ALLIANCE in NE, USA) (IATA:AIA) | Meteo·Mobile Aviation Weather
aviador You're here:

KAIA Decoded Metar

ALLIANCE in NE, USA
Report Time2018-12-15 17:53:00
UTC Time2018-12-15 18:16:41
Flight Rules vfr VFR
Wind240° at 11 kt
W.Decomp.*RWY 26: 9.4 kt HW 5.7 kt LCW
RWY 17: 5.7 kt HW 9.4 kt RCW
RWY 30: 3.6 kt HW 10.4 kt LCW
W.Rank240° ranks 23
Current wind is above 240° avg. (7.7)
Visibility9999 m
Phenomena:N/A
Clouds:N/A
Expected CloudBase > 6,800 ft AGL from Temp-Dew spread
CeilingNone
Temp14°C (ISA +7)
Dew Point-3°C (31% RH)
AAT7.7°C
QNH1015 hPa
Density Alt4,728 ft
Elevation3,924 ft
Report Wrong Elevation
Raw Report
KAIA 151753Z AUTO 24011KT 10SM CLR 14/M03 A2998 RMK AO2 SLP155
T01391033 10178 21028 52009=

Extra information for KAIA:More info

Metar Taf Metar & Taf Last 4 Metars F.Rules Stats Wind Profile Meteogram Temp Stats Airport Information Weather charts Add Link Nearby VenuesMetar ALERT Operation Metar Decoded Social comments

AIRNAV info for KAIA